createdAt,value
2022-09-28T00:01:44.495Z,4.55
2022-09-28T00:05:46.204Z,4.18
2022-09-28T00:09:47.853Z,4.00
2022-09-28T00:13:52.177Z,4.78
2022-09-28T00:17:53.791Z,5.82
2022-09-28T00:21:55.370Z,4.35
2022-09-28T00:26:01.066Z,5.47
2022-09-28T00:30:03.907Z,5.22
2022-09-28T00:34:05.816Z,4.45
2022-09-28T00:38:09.196Z,4.82
2022-09-28T00:42:20.376Z,8.52
2022-09-28T00:46:34.512Z,5.70
2022-09-28T00:50:38.226Z,5.10
2022-09-28T00:54:41.651Z,4.90
2022-09-28T00:58:47.080Z,5.28
2022-09-28T01:02:49.211Z,7.50
2022-09-28T01:06:52.123Z,7.15
2022-09-28T01:10:53.859Z,6.00
2022-09-28T01:14:57.787Z,6.55
2022-09-28T01:19:29.772Z,7.25
2022-09-28T01:24:03.659Z,7.55
2022-09-28T01:28:14.769Z,9.38
2022-09-28T01:32:31.447Z,9.55
2022-09-28T01:36:50.806Z,9.68
2022-09-28T01:40:53.924Z,8.18
2022-09-28T01:45:00.579Z,12.27
2022-09-28T01:49:09.106Z,10.55
2022-09-28T01:53:20.411Z,11.48
2022-09-28T01:57:28.724Z,11.70
2022-09-28T02:01:38.810Z,10.25
2022-09-28T02:05:43.719Z,11.88
2022-09-28T02:09:49.955Z,13.20
2022-09-28T02:14:10.168Z,11.15
2022-09-28T02:18:12.122Z,11.57
2022-09-28T02:22:31.582Z,12.48
2022-09-28T02:26:39.363Z,12.07
2022-09-28T02:30:42.791Z,13.40
2022-09-28T02:34:44.523Z,12.20
2022-09-28T02:38:46.418Z,11.27
2022-09-28T02:43:24.134Z,11.82
2022-09-28T02:47:50.750Z,12.63
2022-09-28T02:52:01.390Z,16.25
2022-09-28T02:56:35.852Z,13.13
2022-09-28T03:00:56.063Z,13.07
2022-09-28T03:05:09.804Z,14.57
2022-09-28T03:09:32.636Z,12.37
2022-09-28T03:13:35.233Z,18.67
2022-09-28T03:17:37.077Z,12.63
2022-09-28T03:21:41.899Z,14.45
2022-09-28T03:25:43.508Z,14.95
2022-09-28T03:29:45.141Z,14.45
2022-09-28T03:33:46.792Z,15.93
2022-09-28T03:37:48.380Z,15.55
2022-09-28T03:41:50.056Z,16.42
2022-09-28T03:46:00.118Z,21.67
2022-09-28T03:50:02.098Z,19.52
2022-09-28T03:54:04.087Z,18.83
2022-09-28T03:58:05.734Z,19.23
2022-09-28T04:02:08.206Z,21.52
2022-09-28T04:06:10.085Z,20.02
2022-09-28T04:10:11.706Z,20.50
2022-09-28T04:14:13.350Z,22.37
2022-09-28T04:18:14.944Z,24.00
2022-09-28T04:22:16.657Z,22.65
2022-09-28T04:26:23.607Z,24.10
2022-09-28T04:30:25.442Z,23.92
2022-09-28T04:34:29.791Z,26.17
2022-09-28T04:38:51.795Z,24.67
2022-09-28T04:42:55.887Z,24.37
2022-09-28T04:46:59.706Z,26.00
2022-09-28T04:51:06.826Z,25.75
2022-09-28T04:55:13.575Z,25.60
2022-09-28T04:59:15.250Z,23.02
2022-09-28T05:03:17.901Z,23.62
2022-09-28T05:07:19.499Z,24.40
2022-09-28T05:11:21.530Z,21.73
2022-09-28T05:15:23.136Z,23.15
2022-09-28T05:19:24.829Z,26.27
2022-09-28T05:23:26.554Z,21.35
2022-09-28T05:27:28.302Z,25.52
2022-09-28T05:31:30.126Z,27.90
2022-09-28T05:35:32.136Z,23.90
2022-09-28T05:39:33.803Z,24.70
2022-09-28T05:43:36.200Z,24.05
2022-09-28T05:47:42.470Z,21.62
2022-09-28T05:51:44.182Z,26.08
2022-09-28T05:55:46.673Z,23.15
2022-09-28T05:59:48.316Z,22.00
2022-09-28T06:03:49.999Z,23.67
2022-09-28T06:07:52.718Z,21.95
2022-09-28T06:11:54.608Z,17.50
2022-09-28T06:15:56.406Z,22.08
2022-09-28T06:19:58.404Z,17.08
2022-09-28T06:24:00.446Z,23.20
2022-09-28T06:28:05.005Z,18.33
2022-09-28T06:32:07.471Z,18.37
2022-09-28T06:36:10.046Z,17.83
2022-09-28T06:40:11.646Z,17.83
2022-09-28T06:44:13.298Z,15.75
2022-09-28T06:48:15.249Z,15.90
2022-09-28T06:52:16.850Z,16.50
2022-09-28T06:56:19.415Z,14.20
2022-09-28T07:00:21.040Z,12.32
2022-09-28T07:07:20.651Z,14.35
2022-09-28T07:11:22.249Z,14.10
2022-09-28T07:15:24.713Z,16.27
2022-09-28T07:19:27.247Z,12.32
2022-09-28T07:23:30.446Z,11.63
2022-09-28T07:27:32.098Z,11.30
2022-09-28T07:31:35.062Z,9.40
2022-09-28T07:35:36.715Z,10.25
2022-09-28T07:39:57.688Z,11.00
2022-09-28T07:44:05.904Z,10.05
2022-09-28T07:48:07.548Z,8.73
2022-09-28T07:52:10.596Z,10.27
2022-09-28T07:56:13.945Z,10.27
2022-09-28T08:00:15.783Z,8.70
2022-09-28T08:04:18.079Z,7.05
2022-09-28T08:08:20.195Z,10.45
2022-09-28T08:12:22.326Z,7.03
2022-09-28T08:16:24.078Z,7.85
2022-09-28T08:20:48.044Z,6.95
2022-09-28T08:24:51.130Z,8.20
2022-09-28T08:28:52.785Z,8.18
2022-09-28T08:32:55.105Z,9.38
2022-09-28T08:36:57.440Z,7.82
2022-09-28T08:41:24.069Z,8.40
2022-09-28T08:45:30.754Z,10.90
2022-09-28T08:49:36.864Z,7.78
2022-09-28T08:54:05.791Z,6.75
2022-09-28T08:58:28.235Z,10.25
2022-09-28T09:02:39.473Z,8.95
2022-09-28T09:06:50.043Z,8.75
2022-09-28T09:11:22.915Z,11.88
2022-09-28T09:15:48.049Z,8.10
2022-09-28T09:20:21.653Z,7.70
2022-09-28T09:24:33.040Z,11.00
2022-09-28T09:28:45.294Z,9.13
2022-09-28T09:32:54.227Z,10.30
2022-09-28T09:36:58.639Z,12.60
2022-09-28T09:41:18.986Z,9.48
2022-09-28T09:45:50.132Z,7.95
2022-09-28T09:50:09.102Z,11.23
2022-09-28T09:54:42.645Z,7.87
2022-09-28T09:58:49.648Z,9.75
2022-09-28T10:02:53.127Z,10.98
2022-09-28T10:07:02.874Z,10.07
2022-09-28T10:11:14.469Z,8.20
2022-09-28T10:15:19.471Z,10.70
2022-09-28T10:19:33.535Z,8.07
2022-09-28T10:23:37.759Z,7.12
2022-09-28T10:27:46.172Z,5.72
2022-09-28T10:31:53.154Z,7.57
2022-09-28T10:35:55.378Z,4.87
2022-09-28T10:39:57.355Z,3.53
2022-09-28T10:44:10.851Z,5.47
2022-09-28T10:48:22.219Z,3.10
2022-09-28T10:52:40.287Z,4.43
2022-09-28T10:56:42.235Z,4.60
2022-09-28T11:01:00.710Z,5.47
2022-09-28T11:05:13.812Z,2.58
2022-09-28T11:09:31.593Z,4.93
2022-09-28T11:13:49.374Z,2.60
2022-09-28T11:21:52.568Z,2.80
2022-09-28T11:26:05.638Z,3.85
2022-09-28T11:30:21.119Z,3.95
2022-09-28T11:34:41.496Z,6.10
2022-09-28T11:39:17.845Z,5.53
2022-09-28T11:44:03.615Z,2.60
2022-09-28T11:48:15.499Z,3.42
2022-09-28T11:52:36.587Z,2.40
2022-09-28T11:56:49.954Z,2.60
2022-09-28T12:00:59.229Z,4.85
2022-09-28T12:05:15.963Z,6.50
2022-09-28T12:09:47.710Z,4.60
2022-09-28T12:13:52.703Z,3.78
2022-09-28T12:18:22.610Z,2.80
2022-09-28T12:22:40.565Z,3.95
2022-09-28T12:27:00.973Z,3.20
2022-09-28T12:31:14.778Z,3.37
2022-09-28T12:36:02.453Z,5.87
2022-09-28T12:40:04.719Z,5.10
2022-09-28T12:44:09.626Z,3.75
2022-09-28T12:48:30.182Z,2.40
2022-09-28T12:52:58.113Z,2.95
2022-09-28T12:57:40.499Z,5.47
2022-09-28T13:02:19.824Z,3.85
2022-09-28T13:07:01.152Z,4.87
2022-09-28T13:11:19.061Z,2.80
2022-09-28T13:15:46.490Z,2.33
2022-09-28T13:20:04.629Z,1.67
2022-09-28T13:24:31.111Z,2.53
2022-09-28T13:28:35.466Z,1.20
2022-09-28T13:32:38.829Z,1.48
2022-09-28T13:36:47.144Z,3.95
2022-09-28T13:41:04.153Z,3.65
2022-09-28T13:45:21.096Z,2.63
2022-09-28T13:49:56.183Z,3.60
2022-09-28T13:54:23.635Z,2.53
2022-09-28T13:58:44.031Z,2.10
2022-09-28T14:03:01.801Z,2.28
2022-09-28T14:07:16.593Z,2.92
2022-09-28T14:11:27.299Z,3.35
2022-09-28T14:15:29.353Z,3.40
2022-09-28T14:19:33.921Z,7.35
2022-09-28T14:24:00.153Z,3.55
2022-09-28T14:28:26.587Z,2.28
2022-09-28T14:32:34.579Z,3.03
2022-09-28T14:37:00.354Z,3.65
2022-09-28T14:41:11.250Z,3.85
2022-09-28T14:45:12.815Z,5.28
2022-09-28T14:49:17.421Z,4.32
2022-09-28T14:53:23.791Z,2.08
2022-09-28T14:57:28.902Z,5.43
2022-09-28T15:01:30.845Z,3.37
2022-09-28T15:05:46.853Z,2.75
2022-09-28T15:09:51.468Z,3.65
2022-09-28T15:14:06.245Z,4.97
2022-09-28T15:18:28.659Z,1.77
2022-09-28T15:22:30.399Z,3.25
2022-09-28T15:26:34.106Z,0.85
2022-09-28T15:30:36.450Z,1.08
2022-09-28T15:34:56.716Z,2.45
2022-09-28T15:39:05.503Z,3.70
2022-09-28T15:43:32.806Z,2.53
2022-09-28T15:47:35.219Z,2.10
2022-09-28T15:51:52.126Z,2.12
2022-09-28T15:56:01.635Z,2.40
2022-09-28T16:00:22.854Z,2.22
2022-09-28T16:04:37.843Z,2.95
2022-09-28T16:08:41.924Z,4.05
2022-09-28T16:12:56.483Z,2.00
2022-09-28T16:16:58.182Z,2.67
2022-09-28T16:21:39.057Z,2.80
2022-09-28T16:25:51.619Z,5.37
2022-09-28T16:30:14.254Z,6.10
2022-09-28T16:34:19.878Z,4.57
2022-09-28T16:38:21.680Z,3.10
2022-09-28T16:42:24.258Z,2.78
2022-09-28T16:46:32.091Z,6.37
2022-09-28T16:50:33.782Z,5.75
2022-09-28T16:54:54.192Z,2.20
2022-09-28T16:58:56.053Z,3.10
2022-09-28T17:02:58.345Z,3.10
2022-09-28T17:07:00.047Z,5.35
2022-09-28T17:11:23.398Z,11.10
2022-09-28T17:15:25.991Z,5.93
2022-09-28T17:19:29.671Z,4.62
2022-09-28T17:23:31.292Z,4.12
2022-09-28T17:27:32.924Z,3.35
2022-09-28T17:31:34.654Z,3.25
2022-09-28T17:35:39.627Z,1.73
2022-09-28T17:39:41.467Z,1.77
2022-09-28T17:43:43.394Z,1.58
2022-09-28T17:47:45.031Z,2.00
2022-09-28T17:51:47.184Z,10.93
2022-09-28T17:55:48.972Z,10.55
2022-09-28T17:59:50.942Z,9.30
2022-09-28T18:03:52.546Z,6.75
2022-09-28T18:07:54.585Z,7.00
2022-09-28T18:12:00.779Z,8.10
2022-09-28T18:16:03.693Z,5.37
2022-09-28T18:20:08.386Z,4.37
2022-09-28T18:24:09.945Z,3.87
2022-09-28T18:28:17.824Z,5.10
2022-09-28T18:32:19.612Z,6.45
2022-09-28T18:36:21.206Z,8.68
2022-09-28T18:40:23.181Z,6.68
2022-09-28T18:44:24.865Z,6.78
2022-09-28T18:48:27.853Z,7.37
2022-09-28T18:52:29.500Z,5.50
2022-09-28T18:56:31.086Z,4.93
2022-09-28T19:00:32.763Z,8.68
2022-09-28T19:04:34.358Z,8.63
2022-09-28T19:08:39.408Z,8.88
2022-09-28T19:12:41.022Z,7.25
2022-09-28T19:16:44.345Z,10.23
2022-09-28T19:20:46.014Z,10.75
2022-09-28T19:24:47.774Z,9.57
2022-09-28T19:28:49.951Z,14.15
2022-09-28T19:32:51.552Z,16.83
2022-09-28T19:36:53.178Z,12.88
2022-09-28T19:40:55.081Z,13.48
2022-09-28T19:44:57.155Z,13.65
2022-09-28T19:49:09.195Z,14.20
2022-09-28T19:53:10.836Z,16.98
2022-09-28T19:57:15.573Z,16.50
2022-09-28T20:01:17.336Z,22.48
2022-09-28T20:05:19.170Z,31.60
2022-09-28T20:09:20.914Z,28.50
2022-09-28T20:13:28.920Z,40.97
2022-09-28T20:17:30.798Z,31.30
2022-09-28T20:21:32.581Z,25.65
2022-09-28T20:25:34.686Z,23.20
2022-09-28T20:29:36.743Z,19.33
2022-09-28T20:33:38.939Z,15.88
2022-09-28T20:37:40.716Z,15.65
2022-09-28T20:41:42.343Z,17.75
2022-09-28T20:45:44.191Z,16.35
2022-09-28T20:49:46.287Z,16.12
2022-09-28T20:53:53.069Z,14.32
2022-09-28T20:57:54.741Z,19.12
2022-09-28T21:01:56.466Z,21.02
2022-09-28T21:05:58.401Z,15.82
2022-09-28T21:10:00.043Z,17.20
2022-09-28T21:14:03.794Z,14.25
2022-09-28T21:18:05.503Z,13.15
2022-09-28T21:22:07.524Z,12.45
2022-09-28T21:26:24.688Z,11.40
2022-09-28T21:30:26.619Z,14.50
2022-09-28T21:34:28.275Z,12.65
2022-09-28T21:38:30.859Z,13.80
2022-09-28T21:42:32.523Z,13.62
2022-09-28T21:46:35.266Z,12.00
2022-09-28T21:50:37.031Z,16.52
2022-09-28T21:54:38.689Z,14.05
2022-09-28T21:58:40.645Z,13.93
2022-09-28T22:02:43.594Z,13.95
2022-09-28T22:06:45.254Z,13.98
2022-09-28T22:11:00.654Z,13.13
2022-09-28T22:15:03.045Z,13.80
2022-09-28T22:19:04.724Z,13.10
2022-09-28T22:23:06.299Z,14.30
2022-09-28T22:27:07.883Z,12.52
2022-09-28T22:31:09.596Z,13.75
2022-09-28T22:35:11.507Z,14.55
2022-09-28T22:39:14.424Z,12.40
2022-09-28T22:43:16.778Z,12.82
2022-09-28T22:47:18.439Z,15.13
2022-09-28T22:51:20.958Z,13.77
2022-09-28T22:55:22.622Z,18.52
2022-09-28T22:59:24.287Z,12.25
2022-09-28T23:03:25.925Z,11.90
2022-09-28T23:07:27.584Z,15.18
2022-09-28T23:11:29.250Z,13.40
2022-09-28T23:15:30.951Z,14.00
2022-09-28T23:19:32.542Z,14.73
2022-09-28T23:23:34.402Z,12.65
2022-09-28T23:27:36.128Z,13.02
2022-09-28T23:31:39.051Z,10.85
2022-09-28T23:35:41.760Z,11.60
2022-09-28T23:39:43.547Z,12.50
2022-09-28T23:43:45.317Z,16.00
2022-09-28T23:47:46.916Z,11.23
2022-09-28T23:51:48.846Z,14.13
2022-09-28T23:55:50.547Z,13.30
2022-09-28T23:59:52.183Z,12.80
